sensor_id;sensor_type;location;lat;lon;timestamp;P1;durP1;ratioP1;P2;durP2;ratioP2
37771;SDS011;23610;59.380;24.642;2023-07-20T00:03:30;5.35;;;1.38;;
37771;SDS011;23610;59.380;24.642;2023-07-20T00:08:33;3.00;;;1.13;;
37771;SDS011;23610;59.380;24.642;2023-07-20T00:13:35;6.32;;;1.95;;
37771;SDS011;23610;59.380;24.642;2023-07-20T00:18:38;6.43;;;1.58;;
37771;SDS011;23610;59.380;24.642;2023-07-20T00:23:40;3.45;;;1.38;;
37771;SDS011;23610;59.380;24.642;2023-07-20T00:28:43;7.43;;;1.13;;
37771;SDS011;23610;59.380;24.642;2023-07-20T00:33:45;2.42;;;1.58;;
37771;SDS011;23610;59.380;24.642;2023-07-20T00:38:48;4.15;;;1.10;;
37771;SDS011;23610;59.380;24.642;2023-07-20T00:43:50;6.10;;;1.67;;
37771;SDS011;23610;59.380;24.642;2023-07-20T00:48:53;6.13;;;1.80;;
37771;SDS011;23610;59.380;24.642;2023-07-20T00:53:56;8.90;;;1.33;;
37771;SDS011;23610;59.380;24.642;2023-07-20T00:58:59;7.90;;;1.70;;
37771;SDS011;23610;59.380;24.642;2023-07-20T01:04:02;5.15;;;1.50;;
37771;SDS011;23610;59.380;24.642;2023-07-20T01:09:18;5.50;;;1.13;;
37771;SDS011;23610;59.380;24.642;2023-07-20T01:14:27;7.63;;;1.42;;
37771;SDS011;23610;59.380;24.642;2023-07-20T01:19:31;7.40;;;1.30;;
37771;SDS011;23610;59.380;24.642;2023-07-20T01:24:45;2.17;;;1.35;;
37771;SDS011;23610;59.380;24.642;2023-07-20T01:35:53;6.65;;;1.52;;
37771;SDS011;23610;59.380;24.642;2023-07-20T01:40:59;5.45;;;1.30;;
37771;SDS011;23610;59.380;24.642;2023-07-20T01:46:01;8.18;;;1.90;;
37771;SDS011;23610;59.380;24.642;2023-07-20T01:51:04;5.00;;;1.50;;
37771;SDS011;23610;59.380;24.642;2023-07-20T01:56:06;6.15;;;1.77;;
37771;SDS011;23610;59.380;24.642;2023-07-20T02:01:09;3.58;;;1.05;;
37771;SDS011;23610;59.380;24.642;2023-07-20T02:06:12;4.90;;;1.48;;
37771;SDS011;23610;59.380;24.642;2023-07-20T02:11:15;6.25;;;1.33;;
37771;SDS011;23610;59.380;24.642;2023-07-20T02:16:17;5.13;;;1.02;;
37771;SDS011;23610;59.380;24.642;2023-07-20T02:21:21;2.15;;;1.48;;
37771;SDS011;23610;59.380;24.642;2023-07-20T02:26:24;3.50;;;1.25;;
37771;SDS011;23610;59.380;24.642;2023-07-20T02:31:26;6.60;;;1.48;;
37771;SDS011;23610;59.380;24.642;2023-07-20T02:36:29;2.67;;;1.27;;
37771;SDS011;23610;59.380;24.642;2023-07-20T02:41:32;3.97;;;1.08;;
37771;SDS011;23610;59.380;24.642;2023-07-20T02:46:35;7.78;;;1.10;;
37771;SDS011;23610;59.380;24.642;2023-07-20T02:51:38;2.45;;;1.30;;
37771;SDS011;23610;59.380;24.642;2023-07-20T02:56:40;4.07;;;1.48;;
37771;SDS011;23610;59.380;24.642;2023-07-20T03:01:43;4.60;;;1.20;;
37771;SDS011;23610;59.380;24.642;2023-07-20T03:06:45;5.00;;;1.75;;
37771;SDS011;23610;59.380;24.642;2023-07-20T03:11:49;2.80;;;0.98;;
37771;SDS011;23610;59.380;24.642;2023-07-20T03:16:52;3.50;;;1.00;;
37771;SDS011;23610;59.380;24.642;2023-07-20T03:21:55;2.80;;;1.20;;
37771;SDS011;23610;59.380;24.642;2023-07-20T03:26:57;5.65;;;3.10;;
37771;SDS011;23610;59.380;24.642;2023-07-20T03:32:01;13.48;;;1.67;;
37771;SDS011;23610;59.380;24.642;2023-07-20T03:37:04;5.78;;;1.30;;
37771;SDS011;23610;59.380;24.642;2023-07-20T03:42:07;7.43;;;1.20;;
37771;SDS011;23610;59.380;24.642;2023-07-20T03:47:10;2.47;;;1.10;;
37771;SDS011;23610;59.380;24.642;2023-07-20T03:52:13;5.82;;;1.40;;
37771;SDS011;23610;59.380;24.642;2023-07-20T03:57:15;4.80;;;1.52;;
37771;SDS011;23610;59.380;24.642;2023-07-20T04:02:18;4.82;;;1.10;;
37771;SDS011;23610;59.380;24.642;2023-07-20T04:07:21;4.22;;;1.55;;
37771;SDS011;23610;59.380;24.642;2023-07-20T04:12:23;5.22;;;1.85;;
37771;SDS011;23610;59.380;24.642;2023-07-20T04:17:26;7.68;;;2.08;;
37771;SDS011;23610;59.380;24.642;2023-07-20T04:22:28;3.70;;;1.15;;
37771;SDS011;23610;59.380;24.642;2023-07-20T04:27:31;2.13;;;1.25;;
37771;SDS011;23610;59.380;24.642;2023-07-20T04:32:33;4.68;;;1.42;;
37771;SDS011;23610;59.380;24.642;2023-07-20T04:37:37;1.48;;;1.02;;
37771;SDS011;23610;59.380;24.642;2023-07-20T04:42:51;4.22;;;1.20;;
37771;SDS011;23610;59.380;24.642;2023-07-20T04:47:54;5.90;;;1.63;;
37771;SDS011;23610;59.380;24.642;2023-07-20T04:52:56;2.88;;;1.25;;
37771;SDS011;23610;59.380;24.642;2023-07-20T04:58:00;3.10;;;0.93;;
37771;SDS011;23610;59.380;24.642;2023-07-20T05:03:04;3.65;;;0.82;;
37771;SDS011;23610;59.380;24.642;2023-07-20T05:08:08;4.10;;;0.90;;
37771;SDS011;23610;59.380;24.642;2023-07-20T05:13:11;4.82;;;0.90;;
37771;SDS011;23610;59.380;24.642;2023-07-20T05:18:14;5.68;;;1.25;;
37771;SDS011;23610;59.380;24.642;2023-07-20T05:23:21;5.53;;;3.10;;
37771;SDS011;23610;59.380;24.642;2023-07-20T05:28:25;3.28;;;1.02;;
37771;SDS011;23610;59.380;24.642;2023-07-20T05:33:28;3.50;;;1.07;;
37771;SDS011;23610;59.380;24.642;2023-07-20T05:38:31;3.38;;;1.27;;
37771;SDS011;23610;59.380;24.642;2023-07-20T05:43:33;6.20;;;1.20;;
37771;SDS011;23610;59.380;24.642;2023-07-20T05:48:36;2.88;;;1.45;;
37771;SDS011;23610;59.380;24.642;2023-07-20T05:53:39;0.75;;;0.60;;
37771;SDS011;23610;59.380;24.642;2023-07-20T05:58:41;3.22;;;0.70;;
37771;SDS011;23610;59.380;24.642;2023-07-20T06:03:44;3.63;;;0.98;;
37771;SDS011;23610;59.380;24.642;2023-07-20T06:08:47;4.35;;;0.60;;
37771;SDS011;23610;59.380;24.642;2023-07-20T06:13:49;1.27;;;0.50;;
37771;SDS011;23610;59.380;24.642;2023-07-20T06:18:52;7.60;;;0.70;;
37771;SDS011;23610;59.380;24.642;2023-07-20T06:23:54;1.75;;;0.60;;
37771;SDS011;23610;59.380;24.642;2023-07-20T06:28:57;0.90;;;0.50;;
37771;SDS011;23610;59.380;24.642;2023-07-20T06:33:59;0.55;;;0.55;;
37771;SDS011;23610;59.380;24.642;2023-07-20T06:39:02;1.38;;;0.60;;
37771;SDS011;23610;59.380;24.642;2023-07-20T06:44:07;1.48;;;0.80;;
37771;SDS011;23610;59.380;24.642;2023-07-20T06:49:19;1.95;;;0.73;;
37771;SDS011;23610;59.380;24.642;2023-07-20T06:54:27;0.50;;;0.50;;
37771;SDS011;23610;59.380;24.642;2023-07-20T06:59:35;0.70;;;0.50;;
37771;SDS011;23610;59.380;24.642;2023-07-20T07:04:42;1.30;;;0.43;;
37771;SDS011;23610;59.380;24.642;2023-07-20T07:09:45;0.80;;;0.47;;
37771;SDS011;23610;59.380;24.642;2023-07-20T07:14:48;1.50;;;0.30;;
37771;SDS011;23610;59.380;24.642;2023-07-20T07:19:51;1.45;;;0.80;;
37771;SDS011;23610;59.380;24.642;2023-07-20T07:24:56;0.65;;;0.45;;
37771;SDS011;23610;59.380;24.642;2023-07-20T07:29:58;2.95;;;0.40;;
37771;SDS011;23610;59.380;24.642;2023-07-20T07:35:01;0.73;;;0.47;;
37771;SDS011;23610;59.380;24.642;2023-07-20T07:40:04;0.60;;;0.40;;
37771;SDS011;23610;59.380;24.642;2023-07-20T07:45:09;1.60;;;0.68;;
37771;SDS011;23610;59.380;24.642;2023-07-20T07:50:12;2.92;;;0.50;;
37771;SDS011;23610;59.380;24.642;2023-07-20T07:55:14;1.27;;;0.57;;
37771;SDS011;23610;59.380;24.642;2023-07-20T08:00:19;0.88;;;0.65;;
37771;SDS011;23610;59.380;24.642;2023-07-20T08:05:22;2.33;;;1.25;;
37771;SDS011;23610;59.380;24.642;2023-07-20T08:10:24;1.95;;;0.60;;
37771;SDS011;23610;59.380;24.642;2023-07-20T08:15:27;3.58;;;1.50;;
37771;SDS011;23610;59.380;24.642;2023-07-20T08:20:29;2.22;;;0.80;;
37771;SDS011;23610;59.380;24.642;2023-07-20T08:25:35;1.80;;;0.90;;
37771;SDS011;23610;59.380;24.642;2023-07-20T08:30:41;1.75;;;0.88;;
37771;SDS011;23610;59.380;24.642;2023-07-20T08:35:49;1.63;;;0.65;;
37771;SDS011;23610;59.380;24.642;2023-07-20T08:40:51;4.60;;;1.10;;
37771;SDS011;23610;59.380;24.642;2023-07-20T08:45:57;6.38;;;1.60;;
37771;SDS011;23610;59.380;24.642;2023-07-20T08:51:00;5.57;;;1.38;;
37771;SDS011;23610;59.380;24.642;2023-07-20T08:56:06;2.00;;;1.20;;
37771;SDS011;23610;59.380;24.642;2023-07-20T09:01:13;2.22;;;0.70;;
37771;SDS011;23610;59.380;24.642;2023-07-20T09:06:16;0.98;;;0.50;;
37771;SDS011;23610;59.380;24.642;2023-07-20T09:11:20;0.40;;;0.40;;
37771;SDS011;23610;59.380;24.642;2023-07-20T09:16:23;0.70;;;0.47;;
37771;SDS011;23610;59.380;24.642;2023-07-20T09:21:28;0.73;;;0.40;;
37771;SDS011;23610;59.380;24.642;2023-07-20T09:26:39;0.65;;;0.50;;
37771;SDS011;23610;59.380;24.642;2023-07-20T09:31:52;3.17;;;0.50;;
37771;SDS011;23610;59.380;24.642;2023-07-20T09:37:03;1.17;;;0.60;;
37771;SDS011;23610;59.380;24.642;2023-07-20T09:42:07;1.30;;;0.50;;
37771;SDS011;23610;59.380;24.642;2023-07-20T09:47:12;1.17;;;0.60;;
37771;SDS011;23610;59.380;24.642;2023-07-20T09:52:29;2.65;;;0.50;;
37771;SDS011;23610;59.380;24.642;2023-07-20T09:57:35;1.05;;;0.45;;
37771;SDS011;23610;59.380;24.642;2023-07-20T10:02:41;7.32;;;1.30;;
37771;SDS011;23610;59.380;24.642;2023-07-20T10:07:49;0.40;;;0.40;;
37771;SDS011;23610;59.380;24.642;2023-07-20T10:13:15;0.60;;;0.55;;
37771;SDS011;23610;59.380;24.642;2023-07-20T10:18:28;2.75;;;0.80;;
37771;SDS011;23610;59.380;24.642;2023-07-20T10:23:35;0.50;;;0.50;;
37771;SDS011;23610;59.380;24.642;2023-07-20T10:28:38;1.90;;;0.45;;
37771;SDS011;23610;59.380;24.642;2023-07-20T10:33:41;0.75;;;0.60;;
37771;SDS011;23610;59.380;24.642;2023-07-20T10:43:50;0.85;;;0.50;;
37771;SDS011;23610;59.380;24.642;2023-07-20T10:48:59;3.10;;;0.82;;
37771;SDS011;23610;59.380;24.642;2023-07-20T10:54:07;2.90;;;0.63;;
37771;SDS011;23610;59.380;24.642;2023-07-20T11:09:44;1.27;;;0.73;;
37771;SDS011;23610;59.380;24.642;2023-07-20T11:14:54;1.98;;;0.63;;
37771;SDS011;23610;59.380;24.642;2023-07-20T11:19:59;3.08;;;0.75;;
37771;SDS011;23610;59.380;24.642;2023-07-20T11:25:09;1.88;;;0.90;;
37771;SDS011;23610;59.380;24.642;2023-07-20T11:30:16;1.27;;;0.63;;
37771;SDS011;23610;59.380;24.642;2023-07-20T11:35:19;2.40;;;0.73;;
37771;SDS011;23610;59.380;24.642;2023-07-20T11:40:22;2.88;;;0.93;;
37771;SDS011;23610;59.380;24.642;2023-07-20T11:45:27;5.32;;;1.05;;
37771;SDS011;23610;59.380;24.642;2023-07-20T11:50:38;3.03;;;0.80;;
37771;SDS011;23610;59.380;24.642;2023-07-20T11:55:41;2.20;;;0.60;;
37771;SDS011;23610;59.380;24.642;2023-07-20T12:00:44;2.47;;;0.95;;
37771;SDS011;23610;59.380;24.642;2023-07-20T12:05:47;3.30;;;1.55;;
37771;SDS011;23610;59.380;24.642;2023-07-20T12:11:02;2.97;;;0.75;;
37771;SDS011;23610;59.380;24.642;2023-07-20T12:16:09;4.45;;;1.40;;
37771;SDS011;23610;59.380;24.642;2023-07-20T12:21:16;2.08;;;1.42;;
37771;SDS011;23610;59.380;24.642;2023-07-20T12:26:21;3.63;;;0.80;;
37771;SDS011;23610;59.380;24.642;2023-07-20T12:31:26;2.30;;;1.10;;
37771;SDS011;23610;59.380;24.642;2023-07-20T12:36:31;1.10;;;0.85;;
37771;SDS011;23610;59.380;24.642;2023-07-20T12:41:33;1.67;;;0.90;;
37771;SDS011;23610;59.380;24.642;2023-07-20T12:46:36;4.80;;;0.80;;
37771;SDS011;23610;59.380;24.642;2023-07-20T12:51:40;1.30;;;0.73;;
37771;SDS011;23610;59.380;24.642;2023-07-20T12:56:42;3.08;;;0.93;;
37771;SDS011;23610;59.380;24.642;2023-07-20T13:01:48;3.00;;;1.10;;
37771;SDS011;23610;59.380;24.642;2023-07-20T13:06:50;1.42;;;0.50;;
37771;SDS011;23610;59.380;24.642;2023-07-20T13:11:53;2.28;;;0.90;;
37771;SDS011;23610;59.380;24.642;2023-07-20T13:16:56;1.10;;;1.00;;
37771;SDS011;23610;59.380;24.642;2023-07-20T13:21:58;1.73;;;0.98;;
37771;SDS011;23610;59.380;24.642;2023-07-20T13:27:01;3.13;;;0.80;;
37771;SDS011;23610;59.380;24.642;2023-07-20T13:32:03;1.50;;;1.00;;
37771;SDS011;23610;59.380;24.642;2023-07-20T13:37:08;2.83;;;0.63;;
37771;SDS011;23610;59.380;24.642;2023-07-20T13:42:14;3.85;;;1.02;;
37771;SDS011;23610;59.380;24.642;2023-07-20T13:47:19;2.17;;;0.77;;
37771;SDS011;23610;59.380;24.642;2023-07-20T13:52:23;2.50;;;1.00;;
37771;SDS011;23610;59.380;24.642;2023-07-20T13:57:28;1.73;;;0.63;;
37771;SDS011;23610;59.380;24.642;2023-07-20T14:02:36;3.67;;;1.35;;
37771;SDS011;23610;59.380;24.642;2023-07-20T14:07:41;1.90;;;1.00;;
37771;SDS011;23610;59.380;24.642;2023-07-20T14:12:45;1.38;;;0.80;;
37771;SDS011;23610;59.380;24.642;2023-07-20T14:17:47;3.30;;;1.23;;
37771;SDS011;23610;59.380;24.642;2023-07-20T14:22:50;3.38;;;1.25;;
37771;SDS011;23610;59.380;24.642;2023-07-20T14:27:52;2.47;;;1.13;;
37771;SDS011;23610;59.380;24.642;2023-07-20T14:32:55;5.70;;;1.40;;
37771;SDS011;23610;59.380;24.642;2023-07-20T14:37:58;2.13;;;1.20;;
37771;SDS011;23610;59.380;24.642;2023-07-20T14:43:00;4.22;;;0.98;;
37771;SDS011;23610;59.380;24.642;2023-07-20T14:48:03;5.25;;;1.75;;
37771;SDS011;23610;59.380;24.642;2023-07-20T14:53:06;2.42;;;1.10;;
37771;SDS011;23610;59.380;24.642;2023-07-20T14:58:09;3.05;;;1.10;;
37771;SDS011;23610;59.380;24.642;2023-07-20T15:03:11;5.45;;;1.20;;
37771;SDS011;23610;59.380;24.642;2023-07-20T15:08:14;1.27;;;1.10;;
37771;SDS011;23610;59.380;24.642;2023-07-20T15:13:17;4.32;;;0.80;;
37771;SDS011;23610;59.380;24.642;2023-07-20T15:18:19;2.70;;;1.15;;
37771;SDS011;23610;59.380;24.642;2023-07-20T15:23:44;3.65;;;0.90;;
37771;SDS011;23610;59.380;24.642;2023-07-20T15:28:47;2.47;;;0.82;;
37771;SDS011;23610;59.380;24.642;2023-07-20T15:33:50;1.45;;;0.88;;
37771;SDS011;23610;59.380;24.642;2023-07-20T15:38:53;4.70;;;1.25;;
37771;SDS011;23610;59.380;24.642;2023-07-20T15:43:56;2.30;;;1.00;;
37771;SDS011;23610;59.380;24.642;2023-07-20T15:48:59;4.30;;;1.02;;
37771;SDS011;23610;59.380;24.642;2023-07-20T15:54:07;4.03;;;1.00;;
37771;SDS011;23610;59.380;24.642;2023-07-20T15:59:13;2.50;;;0.93;;
37771;SDS011;23610;59.380;24.642;2023-07-20T16:04:17;3.67;;;1.00;;
37771;SDS011;23610;59.380;24.642;2023-07-20T16:09:19;1.40;;;0.88;;
37771;SDS011;23610;59.380;24.642;2023-07-20T16:14:23;5.83;;;1.60;;
37771;SDS011;23610;59.380;24.642;2023-07-20T16:19:26;2.53;;;1.00;;
37771;SDS011;23610;59.380;24.642;2023-07-20T16:24:28;5.97;;;1.10;;
37771;SDS011;23610;59.380;24.642;2023-07-20T16:29:33;2.42;;;1.55;;
37771;SDS011;23610;59.380;24.642;2023-07-20T16:34:35;3.40;;;1.10;;
37771;SDS011;23610;59.380;24.642;2023-07-20T16:39:41;5.63;;;2.28;;
37771;SDS011;23610;59.380;24.642;2023-07-20T16:44:49;6.22;;;1.80;;
37771;SDS011;23610;59.380;24.642;2023-07-20T16:49:54;5.32;;;2.05;;
37771;SDS011;23610;59.380;24.642;2023-07-20T16:54:57;6.18;;;1.67;;
37771;SDS011;23610;59.380;24.642;2023-07-20T16:59:59;3.00;;;1.30;;
37771;SDS011;23610;59.380;24.642;2023-07-20T17:05:02;2.88;;;1.88;;
37771;SDS011;23610;59.380;24.642;2023-07-20T17:10:11;5.38;;;2.00;;
37771;SDS011;23610;59.380;24.642;2023-07-20T17:15:13;2.95;;;1.40;;
37771;SDS011;23610;59.380;24.642;2023-07-20T17:20:19;6.45;;;1.88;;
37771;SDS011;23610;59.380;24.642;2023-07-20T17:25:25;3.67;;;1.23;;
37771;SDS011;23610;59.380;24.642;2023-07-20T17:30:32;6.57;;;1.50;;
37771;SDS011;23610;59.380;24.642;2023-07-20T17:35:35;6.50;;;1.02;;
37771;SDS011;23610;59.380;24.642;2023-07-20T17:40:38;4.38;;;1.23;;
37771;SDS011;23610;59.380;24.642;2023-07-20T17:45:40;3.60;;;1.38;;
37771;SDS011;23610;59.380;24.642;2023-07-20T17:50:43;29.83;;;10.40;;
37771;SDS011;23610;59.380;24.642;2023-07-20T17:55:46;22.02;;;7.85;;
37771;SDS011;23610;59.380;24.642;2023-07-20T18:00:48;20.15;;;6.03;;
37771;SDS011;23610;59.380;24.642;2023-07-20T18:05:51;8.13;;;3.13;;
37771;SDS011;23610;59.380;24.642;2023-07-20T18:11:01;8.88;;;3.15;;
37771;SDS011;23610;59.380;24.642;2023-07-20T18:16:08;11.63;;;5.65;;
37771;SDS011;23610;59.380;24.642;2023-07-20T18:21:10;13.15;;;4.38;;
37771;SDS011;23610;59.380;24.642;2023-07-20T18:26:13;5.13;;;1.92;;
37771;SDS011;23610;59.380;24.642;2023-07-20T18:31:16;5.80;;;1.67;;
37771;SDS011;23610;59.380;24.642;2023-07-20T18:36:18;4.72;;;1.67;;
37771;SDS011;23610;59.380;24.642;2023-07-20T18:41:21;2.90;;;1.33;;
37771;SDS011;23610;59.380;24.642;2023-07-20T18:46:24;10.27;;;2.65;;
37771;SDS011;23610;59.380;24.642;2023-07-20T18:51:27;6.85;;;1.63;;
37771;SDS011;23610;59.380;24.642;2023-07-20T18:56:30;3.60;;;1.30;;
37771;SDS011;23610;59.380;24.642;2023-07-20T19:01:32;4.53;;;1.38;;
37771;SDS011;23610;59.380;24.642;2023-07-20T19:06:35;2.38;;;1.00;;
37771;SDS011;23610;59.380;24.642;2023-07-20T19:11:37;1.98;;;1.20;;
37771;SDS011;23610;59.380;24.642;2023-07-20T19:16:43;3.25;;;0.90;;
37771;SDS011;23610;59.380;24.642;2023-07-20T19:21:45;2.15;;;1.27;;
37771;SDS011;23610;59.380;24.642;2023-07-20T19:26:49;5.70;;;1.48;;
37771;SDS011;23610;59.380;24.642;2023-07-20T19:31:51;2.25;;;1.27;;
37771;SDS011;23610;59.380;24.642;2023-07-20T19:36:54;3.13;;;1.25;;
37771;SDS011;23610;59.380;24.642;2023-07-20T19:41:57;6.38;;;1.50;;
37771;SDS011;23610;59.380;24.642;2023-07-20T19:47:00;4.30;;;3.03;;
37771;SDS011;23610;59.380;24.642;2023-07-20T19:52:03;5.80;;;1.52;;
37771;SDS011;23610;59.380;24.642;2023-07-20T20:02:13;4.10;;;2.10;;
37771;SDS011;23610;59.380;24.642;2023-07-20T20:07:16;4.50;;;1.40;;
37771;SDS011;23610;59.380;24.642;2023-07-20T20:12:20;7.40;;;2.30;;
37771;SDS011;23610;59.380;24.642;2023-07-20T20:17:25;4.72;;;2.13;;
37771;SDS011;23610;59.380;24.642;2023-07-20T20:22:28;2.72;;;1.88;;
37771;SDS011;23610;59.380;24.642;2023-07-20T20:27:31;5.88;;;1.90;;
37771;SDS011;23610;59.380;24.642;2023-07-20T20:32:33;1.80;;;1.52;;
37771;SDS011;23610;59.380;24.642;2023-07-20T20:37:41;5.47;;;2.03;;
37771;SDS011;23610;59.380;24.642;2023-07-20T20:42:44;4.43;;;2.10;;
37771;SDS011;23610;59.380;24.642;2023-07-20T20:47:46;5.60;;;2.38;;
37771;SDS011;23610;59.380;24.642;2023-07-20T20:52:49;5.90;;;1.98;;
37771;SDS011;23610;59.380;24.642;2023-07-20T20:57:52;3.75;;;1.75;;
37771;SDS011;23610;59.380;24.642;2023-07-20T21:02:56;3.17;;;2.20;;
37771;SDS011;23610;59.380;24.642;2023-07-20T21:07:58;2.90;;;2.00;;
37771;SDS011;23610;59.380;24.642;2023-07-20T21:13:01;5.90;;;1.90;;
37771;SDS011;23610;59.380;24.642;2023-07-20T21:18:06;4.63;;;1.70;;
37771;SDS011;23610;59.380;24.642;2023-07-20T21:23:09;5.05;;;1.77;;
37771;SDS011;23610;59.380;24.642;2023-07-20T21:28:12;5.20;;;2.45;;
37771;SDS011;23610;59.380;24.642;2023-07-20T21:33:15;1.85;;;1.63;;
37771;SDS011;23610;59.380;24.642;2023-07-20T21:38:17;4.60;;;1.80;;
37771;SDS011;23610;59.380;24.642;2023-07-20T21:43:20;3.38;;;1.73;;
37771;SDS011;23610;59.380;24.642;2023-07-20T21:48:22;5.45;;;1.85;;
37771;SDS011;23610;59.380;24.642;2023-07-20T21:53:25;4.03;;;1.55;;
37771;SDS011;23610;59.380;24.642;2023-07-20T21:58:28;8.13;;;1.80;;
37771;SDS011;23610;59.380;24.642;2023-07-20T22:03:30;4.88;;;2.05;;
37771;SDS011;23610;59.380;24.642;2023-07-20T22:08:33;2.17;;;1.52;;
37771;SDS011;23610;59.380;24.642;2023-07-20T22:13:36;6.93;;;1.98;;
37771;SDS011;23610;59.380;24.642;2023-07-20T22:18:38;6.97;;;2.05;;
37771;SDS011;23610;59.380;24.642;2023-07-20T22:23:41;4.82;;;1.98;;
37771;SDS011;23610;59.380;24.642;2023-07-20T22:28:43;9.65;;;2.20;;
37771;SDS011;23610;59.380;24.642;2023-07-20T22:33:46;2.72;;;1.67;;
37771;SDS011;23610;59.380;24.642;2023-07-20T22:38:49;2.80;;;2.20;;
37771;SDS011;23610;59.380;24.642;2023-07-20T22:43:53;1.50;;;1.35;;
37771;SDS011;23610;59.380;24.642;2023-07-20T22:48:55;6.88;;;2.03;;
37771;SDS011;23610;59.380;24.642;2023-07-20T22:53:58;4.93;;;1.65;;
37771;SDS011;23610;59.380;24.642;2023-07-20T22:59:01;7.90;;;1.65;;
37771;SDS011;23610;59.380;24.642;2023-07-20T23:04:04;4.43;;;2.00;;
37771;SDS011;23610;59.380;24.642;2023-07-20T23:09:07;7.65;;;1.63;;
37771;SDS011;23610;59.380;24.642;2023-07-20T23:14:10;4.13;;;1.50;;
37771;SDS011;23610;59.380;24.642;2023-07-20T23:19:13;1.55;;;1.20;;
37771;SDS011;23610;59.380;24.642;2023-07-20T23:24:16;4.65;;;1.67;;
37771;SDS011;23610;59.380;24.642;2023-07-20T23:29:19;2.90;;;1.70;;
37771;SDS011;23610;59.380;24.642;2023-07-20T23:34:22;2.97;;;1.30;;
37771;SDS011;23610;59.380;24.642;2023-07-20T23:39:25;4.07;;;1.30;;
37771;SDS011;23610;59.380;24.642;2023-07-20T23:44:27;4.78;;;1.98;;
37771;SDS011;23610;59.380;24.642;2023-07-20T23:49:30;4.15;;;1.52;;
37771;SDS011;23610;59.380;24.642;2023-07-20T23:54:32;3.30;;;1.70;;
37771;SDS011;23610;59.380;24.642;2023-07-20T23:59:36;3.58;;;1.40;;
